Terminal Aerodrome Forecast
Issued by NWS

Home | Current Version | Previous Version | Graphics & Text | Print | Product List | Glossary On
Versions: 1 2 3 4 5 6 7 8 9 10 11 12 13 14 15 16 17 18 19 20 21 22 23 24 25 26 27 28 29 30 31 32
740
FTUS45 KGGW 172102 AAA
TAFGDV
TAF AMD
KGDV 172102Z 1721/1818 23021G25KT P6SM SKC
     FM180000 22009KT P6SM SKC
     FM180300 22009KT P6SM SCT200 WS020/24040KT
     FM180600 24011G29KT P6SM SCT200 WS020/29050KT
     FM180800 30019G28KT P6SM FEW110 FEW200
     FM181200 28012KT P6SM SCT110 SCT200=

USA.gov is the U.S. government's official web portal to all federal, state and local government web resources and services.